WetterOnline ( http://www.wetteronline.de )

Wetter aktuell Neustadt i.H.

Aktuelles Wetter: Pelzerhaken/Neustadt i.H. (2m)

6-stündlich | Neueste Meldungen
Ortszeit Temperatur Wetter
Fr, 23.02. 19:00 -0.6° C wolkenlos
Fr, 23.02. 13:00 -0.2° C leicht bewölkt
Fr, 23.02. 7:00 -1.0° C leicht bewölkt
Fr, 23.02. 1:00 0.6° C bedeckt
Do, 22.02. 19:00 0.5° C leichter Schneefall
Do, 22.02. 13:00 1.7° C bedeckt
Do, 22.02. 7:00 -0.7° C Schneefall
Do, 22.02. 1:00 -2.2° C bedeckt
Ortszeit Temperatur Wetter
Fr, 23.02. 23:30 0.3° C bedeckt
Fr, 23.02. 23:10 0.3° C bedeckt
Fr, 23.02. 23:00 0.5° C bedeckt
Fr, 23.02. 22:50 0.5° C bedeckt
Fr, 23.02. 22:40 0.4° C bedeckt
Fr, 23.02. 22:30 0.3° C wolkig
Fr, 23.02. 22:00 -0.2° C wolkenlos
Fr, 23.02. 21:30 -0.2° C wolkenlos
Fr, 23.02. 21:00 -0.2° C wolkenlos
Fr, 23.02. 20:30 -0.1° C wolkenlos
Fr, 23.02. 20:00 -0.5° C wolkenlos
Ortszeit Relative Feuchte Sichtweite
Fr, 23.02. 19:00 66% 18 km
Fr, 23.02. 13:00 63% 10 km
Fr, 23.02. 7:00 73% 26 km
Fr, 23.02. 1:00 80% 9 km
Do, 22.02. 19:00 88% 1.7 km
Do, 22.02. 13:00 82% 5.0 km
Do, 22.02. 7:00 95% 1.7 km
Do, 22.02. 1:00 95% 2.6 km
Ortszeit Relative Feuchte Sichtweite
Fr, 23.02. 23:30 71% 20 km
Fr, 23.02. 23:10 72% -
Fr, 23.02. 23:00 71% 24 km
Fr, 23.02. 22:50 71% -
Fr, 23.02. 22:40 70% -
Fr, 23.02. 22:30 70% 24 km
Fr, 23.02. 22:00 70% 21 km
Fr, 23.02. 21:30 69% 20 km
Fr, 23.02. 21:00 66% 20 km
Fr, 23.02. 20:30 65% 22 km
Fr, 23.02. 20:00 67% 19 km
Ortszeit Niederschlagsmenge Niederschlagsart
Fr, 23.02. 19:00 0.0 l/m2 in 12 Std. -
Fr, 23.02. 13:00 0.0 l/m2 in 6 Std. -
Fr, 23.02. 7:00 0.1 l/m2 in 12 Std. -
Fr, 23.02. 1:00 0.1 l/m2 in 6 Std. Schnee, Sprühregen
Do, 22.02. 19:00 0.1 l/m2 in 12 Std. Schnee, Regen
Do, 22.02. 13:00 0.1 l/m2 in 6 Std. Schnee, Sprühregen
Do, 22.02. 7:00 0.2 l/m2 in 12 Std. Schnee
Do, 22.02. 1:00 0.0 l/m2 in 6 Std. -
Ortszeit Niederschlagsmenge Niederschlagsart
Fr, 23.02. 23:30 0.0 l/m2 in 1 Std. -
Fr, 23.02. 23:10 keine Meldung -
Fr, 23.02. 23:00 0.0 l/m2 in 1 Std. -
Fr, 23.02. 22:50 keine Meldung -
Fr, 23.02. 22:40 keine Meldung -
Fr, 23.02. 22:30 0.0 l/m2 in 1 Std. -
Fr, 23.02. 22:00 0.0 l/m2 in 1 Std. -
Fr, 23.02. 21:30 0.0 l/m2 in 1 Std. -
Fr, 23.02. 21:00 0.0 l/m2 in 1 Std. -
Fr, 23.02. 20:30 0.0 l/m2 in 1 Std. -
Fr, 23.02. 20:00 0.0 l/m2 in 1 Std. -
Ortszeit Stärke Spitze Richtung
km/h Bft. km/h Grad Sektor
Fr, 23.02. 19:00 15 3 30 60° NO
Fr, 23.02. 13:00 22 4 36 80° O
Fr, 23.02. 7:00 22 4 32 80° O
Fr, 23.02. 1:00 28 4 35 110° O
Do, 22.02. 19:00 18 3 29 60° NO
Do, 22.02. 13:00 6 1 9 20° N
Do, 22.02. 7:00 4 1 14 290° W
Do, 22.02. 1:00 7 2 11 330° NW
Ortszeit Stärke Spitze Richtung
km/h Bft. km/h Grad Sektor
Fr, 23.02. 23:30 18 3 29 100° O
Fr, 23.02. 23:10 19 3 - 90° O
Fr, 23.02. 23:00 22 4 32 70° O
Fr, 23.02. 22:50 22 4 - 70° O
Fr, 23.02. 22:40 22 4 - 80° O
Fr, 23.02. 22:30 20 4 31 70° O
Fr, 23.02. 22:00 18 3 29 70° O
Fr, 23.02. 21:30 22 4 28 80° O
Fr, 23.02. 21:00 22 4 28 70° O
Fr, 23.02. 20:30 22 4 25 80° O
Fr, 23.02. 20:00 18 3 29 70° O
Ortszeit Untergrenze Bedeckung Gattung
total tief tief mittel hoch
Fr, 23.02. 19:00 - 0/8 0/8 - - -
Fr, 23.02. 13:00 7500 m 8/8 0/8 - - -
Fr, 23.02. 7:00 750 m 3/8 3/8 - - -
Fr, 23.02. 1:00 1470 m 8/8 8/8 - - -
Do, 22.02. 19:00 270 m 8/8 8/8 - - -
Do, 22.02. 13:00 270 m 8/8 8/8 - - -
Do, 22.02. 7:00 600 m 8/8 8/8 - - -
Do, 22.02. 1:00 1500 m 8/8 8/8 - - -
Ortszeit Bedeckungsgrad in Achtel und Wolkenuntergrenze
Fr, 23.02. 23:30 8(690m)
Fr, 23.02. 23:10 8(720m)
Fr, 23.02. 23:00 8(750m)
Fr, 23.02. 22:50 8(750m)
Fr, 23.02. 22:40 8(750m)
Fr, 23.02. 22:30 6(780m)
Fr, 23.02. 22:00 1(780m)
Fr, 23.02. 21:30 keine Wolken
Fr, 23.02. 21:00 keine Wolken
Fr, 23.02. 20:30 keine Wolken
Fr, 23.02. 20:00 keine Wolken
Ortszeit Luftdruck NN (hPa) Tendenz (hPa in 3 Std.)
Fr, 23.02. 19:00 1029 + 0,1
Fr, 23.02. 13:00 1029 0,0
Fr, 23.02. 7:00 1028 + 0,6
Fr, 23.02. 1:00 1028 + 0,5
Do, 22.02. 19:00 1027 + 0,1
Do, 22.02. 13:00 1028 0,0
Do, 22.02. 7:00 1028 - 0,2
Do, 22.02. 1:00 1028 - 0,2
Ortszeit Luftdruck NN (hPa) Tendenz (hPa in 3 Std.)
Fr, 23.02. 23:30 1030 + 0,8
Fr, 23.02. 23:10 1030 keine Meldung
Fr, 23.02. 23:00 1030 + 1,0
Fr, 23.02. 22:50 1030 keine Meldung
Fr, 23.02. 22:40 1030 keine Meldung
Fr, 23.02. 22:30 1030 + 0,7
Fr, 23.02. 22:00 1030 + 0,7
Fr, 23.02. 21:30 1029 + 0,7
Fr, 23.02. 21:00 1029 + 0,8
Fr, 23.02. 20:30 1029 + 0,5
Fr, 23.02. 20:00 1029 + 0,3
Ortszeit Schneehöhe (cm)
Fr, 23.02. 19:00 0
Fr, 23.02. 13:00 0
Fr, 23.02. 7:00 0
Fr, 23.02. 1:00 0
Do, 22.02. 19:00 0
Do, 22.02. 13:00 0
Do, 22.02. 7:00 0
Do, 22.02. 1:00 0
Ortszeit Schneehöhe (cm)
Fr, 23.02. 23:30 0
Fr, 23.02. 23:10 0
Fr, 23.02. 23:00 0
Fr, 23.02. 22:50 0
Fr, 23.02. 22:40 0
Fr, 23.02. 22:30 0
Fr, 23.02. 22:00 0
Fr, 23.02. 21:30 0
Fr, 23.02. 21:00 0
Fr, 23.02. 20:30 0
Fr, 23.02. 20:00 0
Link zu dieser Seite / Seite empfehlen

Das Wetter in ...